createdAt,value
2019-05-01T00:00:38.575Z,0
2019-05-01T00:01:39.298Z,0
2019-05-01T00:02:40.090Z,0
2019-05-01T00:03:40.906Z,0
2019-05-01T00:04:41.635Z,0
2019-05-01T00:05:42.368Z,0
2019-05-01T00:06:43.107Z,0
2019-05-01T00:07:43.892Z,0
2019-05-01T00:08:44.715Z,0
2019-05-01T00:09:45.458Z,0
2019-05-01T00:10:46.253Z,0
2019-05-01T00:11:47.012Z,0
2019-05-01T00:12:47.767Z,0
2019-05-01T00:13:48.536Z,0
2019-05-01T00:14:49.292Z,0
2019-05-01T00:15:50.058Z,0
2019-05-01T00:16:50.783Z,0
2019-05-01T00:17:51.555Z,0
2019-05-01T00:18:52.340Z,0
2019-05-01T00:19:53.064Z,0
2019-05-01T00:20:53.818Z,0
2019-05-01T00:21:54.516Z,0
2019-05-01T00:22:55.265Z,0
2019-05-01T00:23:55.979Z,0
2019-05-01T00:24:56.714Z,0
2019-05-01T00:25:57.499Z,0
2019-05-01T00:26:58.265Z,0
2019-05-01T00:27:59.038Z,0
2019-05-01T00:28:59.827Z,0
2019-05-01T00:30:00.540Z,0
2019-05-01T00:31:01.338Z,0
2019-05-01T00:32:02.068Z,0
2019-05-01T00:33:02.846Z,0
2019-05-01T00:34:03.632Z,0
2019-05-01T00:35:04.394Z,0
2019-05-01T00:36:05.117Z,0
2019-05-01T00:37:05.837Z,0
2019-05-01T00:38:06.614Z,0
2019-05-01T00:39:07.407Z,0
2019-05-01T00:40:08.122Z,0
2019-05-01T00:41:08.856Z,0
2019-05-01T00:42:09.605Z,0
2019-05-01T00:43:10.403Z,0
2019-05-01T00:44:11.212Z,0
2019-05-01T00:45:11.985Z,0
2019-05-01T00:46:12.711Z,0
2019-05-01T00:47:13.439Z,0
2019-05-01T00:48:14.246Z,0
2019-05-01T00:49:15.027Z,0
2019-05-01T00:50:15.812Z,0
2019-05-01T00:51:16.610Z,0
2019-05-01T00:52:17.326Z,0
2019-05-01T00:53:18.109Z,0
2019-05-01T00:54:18.902Z,0
2019-05-01T00:55:19.630Z,0
2019-05-01T00:56:20.328Z,0
2019-05-01T00:57:21.032Z,0
2019-05-01T00:58:21.767Z,0
2019-05-01T00:59:22.486Z,0
2019-05-01T01:00:23.224Z,0
2019-05-01T01:01:23.989Z,0
2019-05-01T01:02:24.727Z,0
2019-05-01T01:03:25.480Z,0
2019-05-01T01:04:26.275Z,0
2019-05-01T01:05:27.021Z,0
2019-05-01T01:06:27.746Z,0
2019-05-01T01:07:28.479Z,0
2019-05-01T01:08:29.265Z,0
2019-05-01T01:09:30.008Z,0
2019-05-01T01:10:30.788Z,0
2019-05-01T01:11:31.537Z,0
2019-05-01T01:12:32.275Z,0
2019-05-01T01:13:33.096Z,0
2019-05-01T01:14:33.820Z,0
2019-05-01T01:15:34.577Z,0
2019-05-01T01:16:35.399Z,0
2019-05-01T01:17:36.113Z,0
2019-05-01T01:18:36.879Z,0
2019-05-01T01:19:37.638Z,0
2019-05-01T01:20:38.434Z,0
2019-05-01T01:21:39.226Z,0
2019-05-01T01:22:39.923Z,0
2019-05-01T01:23:40.716Z,0
2019-05-01T01:24:41.470Z,0
2019-05-01T01:25:42.223Z,0
2019-05-01T01:26:43.008Z,0
2019-05-01T01:27:43.759Z,0
2019-05-01T01:28:44.545Z,0
2019-05-01T01:29:45.288Z,0
2019-05-01T01:30:56.895Z,0
2019-05-01T01:31:57.747Z,0
2019-05-01T01:32:58.463Z,0
2019-05-01T01:33:59.191Z,0
2019-05-01T01:34:59.942Z,0
2019-05-01T01:36:00.731Z,0
2019-05-01T01:37:01.542Z,0
2019-05-01T01:38:02.365Z,0
2019-05-01T01:39:03.112Z,0
2019-05-01T01:40:03.824Z,0
2019-05-01T01:41:04.578Z,0
2019-05-01T01:42:05.375Z,0
2019-05-01T01:43:06.154Z,0
2019-05-01T01:44:06.936Z,0
2019-05-01T01:45:07.679Z,0
2019-05-01T01:46:08.426Z,0
2019-05-01T01:47:09.221Z,0
2019-05-01T01:48:09.955Z,0
2019-05-01T01:49:10.727Z,0
2019-05-01T01:50:11.451Z,0
2019-05-01T01:51:12.197Z,0
2019-05-01T01:52:13.008Z,0
2019-05-01T01:53:13.723Z,0
2019-05-01T01:54:14.494Z,0
2019-05-01T01:55:15.214Z,0
2019-05-01T01:56:15.935Z,0
2019-05-01T01:57:16.706Z,0
2019-05-01T01:58:17.458Z,0
2019-05-01T01:59:18.257Z,0
2019-05-01T02:00:18.989Z,0
2019-05-01T02:01:19.768Z,0
2019-05-01T02:02:20.590Z,0
2019-05-01T02:03:21.319Z,0
2019-05-01T02:04:22.117Z,0
2019-05-01T02:05:22.854Z,0
2019-05-01T02:06:23.643Z,0
2019-05-01T02:07:24.401Z,0
2019-05-01T02:08:25.112Z,0
2019-05-01T02:09:25.867Z,0
2019-05-01T02:10:26.760Z,0
2019-05-01T02:11:27.793Z,0
2019-05-01T02:12:28.576Z,0
2019-05-01T02:13:29.297Z,0
2019-05-01T02:14:30.048Z,0
2019-05-01T02:15:30.772Z,0
2019-05-01T02:16:31.507Z,0
2019-05-01T02:17:32.297Z,0
2019-05-01T02:18:33.017Z,0
2019-05-01T02:19:33.781Z,0
2019-05-01T02:20:34.524Z,0
2019-05-01T02:21:35.287Z,0
2019-05-01T02:22:36.045Z,0
2019-05-01T02:23:36.783Z,0
2019-05-01T02:24:37.569Z,0
2019-05-01T02:25:38.298Z,0
2019-05-01T02:26:39.049Z,0
2019-05-01T02:27:39.841Z,0
2019-05-01T02:28:40.570Z,0
2019-05-01T02:29:41.390Z,0
2019-05-01T02:30:42.168Z,0
2019-05-01T02:31:42.986Z,0
2019-05-01T02:32:43.814Z,0
2019-05-01T02:33:44.558Z,0
2019-05-01T02:34:45.381Z,0
2019-05-01T02:35:46.128Z,0
2019-05-01T02:36:46.930Z,0
2019-05-01T02:37:47.842Z,0
2019-05-01T02:38:48.579Z,0
2019-05-01T02:39:49.375Z,0
2019-05-01T02:40:50.117Z,0
2019-05-01T02:41:50.842Z,0
2019-05-01T02:42:51.606Z,0
2019-05-01T02:43:52.316Z,0
2019-05-01T02:44:53.124Z,0
2019-05-01T02:45:53.921Z,0
2019-05-01T02:46:54.723Z,0
2019-05-01T02:47:55.546Z,0
2019-05-01T02:48:56.290Z,0
2019-05-01T02:49:57.049Z,0
2019-05-01T02:50:57.782Z,0
2019-05-01T02:51:58.558Z,0
2019-05-01T02:52:59.353Z,0
2019-05-01T02:54:00.089Z,0
2019-05-01T02:55:00.904Z,0
2019-05-01T02:56:01.616Z,0
2019-05-01T02:57:02.397Z,0
2019-05-01T02:58:03.187Z,0
2019-05-01T02:59:03.927Z,0
2019-05-01T03:00:04.750Z,0
2019-05-01T03:01:05.525Z,0
2019-05-01T03:02:06.284Z,0
2019-05-01T03:03:07.085Z,0
2019-05-01T03:04:07.804Z,0
2019-05-01T03:05:08.640Z,0
2019-05-01T03:06:09.356Z,0
2019-05-01T03:07:10.105Z,0
2019-05-01T03:08:10.921Z,0
2019-05-01T03:09:11.662Z,0
2019-05-01T03:10:12.457Z,0
2019-05-01T03:11:13.209Z,0
2019-05-01T03:12:13.946Z,0
2019-05-01T03:13:14.751Z,0
2019-05-01T03:14:15.546Z,0
2019-05-01T03:15:16.387Z,0
2019-05-01T03:16:17.157Z,0
2019-05-01T03:17:17.890Z,0
2019-05-01T03:18:18.682Z,0
2019-05-01T03:19:19.476Z,0
2019-05-01T03:20:20.460Z,0
2019-05-01T03:21:21.220Z,0
2019-05-01T03:22:22.010Z,0
2019-05-01T03:23:22.816Z,0
2019-05-01T03:24:23.614Z,0
2019-05-01T03:25:24.373Z,0
2019-05-01T03:26:25.089Z,0
2019-05-01T03:27:25.844Z,0
2019-05-01T03:28:26.633Z,0
2019-05-01T03:29:27.419Z,0
2019-05-01T03:30:28.289Z,0
2019-05-01T03:31:29.063Z,0
2019-05-01T03:32:29.810Z,0
2019-05-01T03:33:30.620Z,0
2019-05-01T03:34:31.386Z,0
2019-05-01T03:35:32.215Z,0
2019-05-01T03:36:32.983Z,0
2019-05-01T03:37:33.719Z,0
2019-05-01T03:38:34.571Z,0
2019-05-01T03:39:35.399Z,0
2019-05-01T03:40:36.230Z,0
2019-05-01T03:41:36.989Z,0
2019-05-01T03:42:37.772Z,0
2019-05-01T03:43:38.582Z,0
2019-05-01T03:44:39.364Z,0
2019-05-01T03:45:40.203Z,0
2019-05-01T03:46:40.964Z,0
2019-05-01T03:47:41.767Z,0
2019-05-01T03:48:42.555Z,0
2019-05-01T03:49:43.291Z,0
2019-05-01T03:50:47.595Z,0
2019-05-01T03:51:48.389Z,0
2019-05-01T03:52:49.148Z,0
2019-05-01T03:53:49.877Z,0
2019-05-01T03:54:50.619Z,0
2019-05-01T03:55:51.432Z,0
2019-05-01T03:56:52.232Z,0
2019-05-01T03:57:53.054Z,0
2019-05-01T03:58:53.847Z,0
2019-05-01T03:59:54.545Z,0
2019-05-01T04:00:55.337Z,0
2019-05-01T04:01:56.095Z,0
2019-05-01T04:02:56.864Z,0
2019-05-01T04:03:57.684Z,0
2019-05-01T04:04:58.455Z,0
2019-05-01T04:05:59.255Z,0
2019-05-01T04:07:00.000Z,0
2019-05-01T04:08:00.760Z,0
2019-05-01T04:09:01.529Z,0
2019-05-01T04:10:02.287Z,0
2019-05-01T04:11:03.089Z,0
2019-05-01T04:12:03.901Z,0
2019-05-01T04:13:04.717Z,0
2019-05-01T04:14:05.561Z,0
2019-05-01T04:15:06.319Z,0
2019-05-01T04:16:07.119Z,0
2019-05-01T04:17:07.863Z,0
2019-05-01T04:18:08.643Z,0
2019-05-01T04:19:09.417Z,0
2019-05-01T04:20:10.225Z,0
2019-05-01T04:21:10.970Z,0
2019-05-01T04:22:11.684Z,0
2019-05-01T04:23:12.453Z,0
2019-05-01T04:24:13.278Z,0
2019-05-01T04:25:14.041Z,0
2019-05-01T04:26:14.847Z,0
2019-05-01T04:27:15.581Z,0
2019-05-01T04:28:16.365Z,0
2019-05-01T04:29:17.195Z,0
2019-05-01T04:30:18.015Z,0
2019-05-01T04:31:18.874Z,0
2019-05-01T04:32:19.646Z,0
2019-05-01T04:33:20.455Z,0
2019-05-01T04:34:41.664Z,1400
2019-05-01T04:35:42.491Z,1400
2019-05-01T04:36:43.318Z,1350
2019-05-01T04:37:44.079Z,1350
2019-05-01T04:38:44.853Z,1350
2019-05-01T04:39:45.620Z,1350
2019-05-01T04:40:46.468Z,1350
2019-05-01T04:41:47.208Z,1350
2019-05-01T04:42:47.988Z,1350
2019-05-01T04:43:48.809Z,1350
2019-05-01T04:44:49.567Z,1350
2019-05-01T04:45:50.361Z,1350
2019-05-01T04:46:53.882Z,1350
2019-05-01T04:47:54.711Z,1350
2019-05-01T04:48:55.518Z,1300
2019-05-01T04:49:56.297Z,1300
2019-05-01T04:50:57.100Z,1300
2019-05-01T04:51:57.858Z,1300
2019-05-01T04:52:58.653Z,1300
2019-05-01T04:53:59.385Z,1300
2019-05-01T04:55:00.109Z,1300
2019-05-01T04:56:00.895Z,1300
2019-05-01T04:57:01.692Z,1300
2019-05-01T04:58:02.479Z,1300
2019-05-01T04:59:03.227Z,1300
2019-05-01T05:00:03.999Z,1300
2019-05-01T05:01:04.754Z,1300
2019-05-01T05:02:05.564Z,1300
2019-05-01T05:03:06.336Z,1300
2019-05-01T05:04:07.127Z,1300
2019-05-01T05:05:07.887Z,1300
2019-05-01T05:06:08.676Z,1300
2019-05-01T05:07:09.414Z,1300
2019-05-01T05:08:10.193Z,1300
2019-05-01T05:09:10.946Z,1300
2019-05-01T05:10:11.726Z,1300
2019-05-01T05:11:12.537Z,1300
2019-05-01T05:12:13.297Z,1300
2019-05-01T05:13:14.045Z,1300
2019-05-01T05:14:14.825Z,1300
2019-05-01T05:15:15.589Z,1300
2019-05-01T05:16:16.401Z,1300
2019-05-01T05:17:17.252Z,1300
2019-05-01T05:18:17.980Z,1300
2019-05-01T05:19:18.827Z,1300
2019-05-01T05:20:19.613Z,1300
2019-05-01T05:21:20.447Z,1300
2019-05-01T05:22:21.207Z,1300
2019-05-01T05:23:21.975Z,1300
2019-05-01T05:24:22.731Z,1300
2019-05-01T05:25:23.504Z,1300
2019-05-01T05:26:24.295Z,1300
2019-05-01T05:27:25.051Z,1300
2019-05-01T05:28:25.849Z,1250
2019-05-01T05:29:26.615Z,1300
2019-05-01T05:30:27.394Z,1300
2019-05-01T05:31:28.204Z,1300
2019-05-01T05:32:28.988Z,1300
2019-05-01T05:33:29.774Z,1300
2019-05-01T05:34:30.603Z,1300
2019-05-01T05:35:31.416Z,1300
2019-05-01T05:36:32.204Z,1300
2019-05-01T05:37:32.945Z,1300
2019-05-01T05:38:33.679Z,1250
2019-05-01T05:39:34.417Z,1250
2019-05-01T05:40:35.158Z,1250
2019-05-01T05:41:35.957Z,1250
2019-05-01T05:42:36.715Z,1250
2019-05-01T05:43:37.462Z,1250
2019-05-01T05:44:38.218Z,1250
2019-05-01T05:45:38.989Z,1300
2019-05-01T05:46:39.784Z,1300
2019-05-01T05:47:40.515Z,1250
2019-05-01T05:48:41.305Z,1250
2019-05-01T05:49:42.043Z,1250
2019-05-01T05:50:42.744Z,1250
2019-05-01T05:51:43.513Z,1250
2019-05-01T05:52:44.216Z,1250
2019-05-01T05:53:44.965Z,1300
2019-05-01T05:54:45.687Z,1250
2019-05-01T05:55:46.427Z,1250
2019-05-01T05:56:47.235Z,1250
2019-05-01T05:57:47.998Z,1250
2019-05-01T05:58:48.806Z,1250
2019-05-01T05:59:49.570Z,1250
2019-05-01T06:00:50.316Z,1250
2019-05-01T06:01:51.104Z,1250
2019-05-01T06:02:51.866Z,1250
2019-05-01T06:03:52.662Z,1250
2019-05-01T06:04:53.402Z,1250
2019-05-01T06:05:54.156Z,1250
2019-05-01T06:06:54.963Z,1250
2019-05-01T06:07:55.695Z,1250
2019-05-01T06:08:56.478Z,1250
2019-05-01T06:09:57.200Z,1250
2019-05-01T06:11:00.138Z,1250
2019-05-01T06:12:08.904Z,1250
2019-05-01T06:13:10.884Z,1250
2019-05-01T06:14:11.677Z,1250
2019-05-01T06:15:12.443Z,1250
2019-05-01T06:16:17.389Z,1250
2019-05-01T06:17:18.262Z,1250
2019-05-01T06:18:19.005Z,1250
2019-05-01T06:19:19.832Z,1250
2019-05-01T06:20:25.789Z,1150
2019-05-01T06:21:28.316Z,1250
2019-05-01T06:22:29.105Z,1250
2019-05-01T06:23:29.844Z,1250
2019-05-01T06:24:30.586Z,1250
2019-05-01T06:25:31.342Z,1250
2019-05-01T06:26:39.208Z,1250
2019-05-01T06:27:40.290Z,1250
2019-05-01T06:28:41.113Z,1250
2019-05-01T06:29:41.833Z,1250
2019-05-01T06:30:48.847Z,1250
2019-05-01T06:31:53.876Z,1250
2019-05-01T06:33:04.012Z,1250
2019-05-01T06:34:10.287Z,1250
2019-05-01T06:35:11.029Z,1250
2019-05-01T06:36:14.328Z,1250
2019-05-01T06:37:15.110Z,1250
2019-05-01T06:38:15.904Z,1250
2019-05-01T06:39:16.757Z,1250
2019-05-01T06:40:22.567Z,1250
2019-05-01T06:41:24.308Z,1250
2019-05-01T06:42:25.050Z,1250
2019-05-01T06:43:27.440Z,1250
2019-05-01T06:44:28.253Z,1250
2019-05-01T06:45:28.974Z,1250
2019-05-01T06:46:29.691Z,1250
2019-05-01T06:47:30.398Z,1250
2019-05-01T06:48:33.534Z,1250
2019-05-01T06:49:34.341Z,1250
2019-05-01T06:50:41.689Z,1250
2019-05-01T06:51:43.622Z,1250
2019-05-01T06:52:48.802Z,1250
2019-05-01T06:53:49.593Z,1250
2019-05-01T06:54:53.579Z,1250
2019-05-01T06:55:54.384Z,1250
2019-05-01T06:56:55.146Z,1250
2019-05-01T06:57:55.885Z,1250
2019-05-01T06:58:56.688Z,1250
2019-05-01T06:59:57.578Z,1250
2019-05-01T07:00:58.318Z,1250
2019-05-01T07:02:00.383Z,1250
2019-05-01T07:03:01.138Z,1250
2019-05-01T07:04:04.142Z,1250
2019-05-01T07:05:14.412Z,1250
2019-05-01T07:06:17.046Z,1250
2019-05-01T07:07:25.848Z,1250
2019-05-01T07:08:34.157Z,1250
2019-05-01T07:09:49.112Z,1250
2019-05-01T07:10:51.740Z,1250
2019-05-01T07:11:54.664Z,1250
2019-05-01T07:12:55.509Z,1250
2019-05-01T07:14:00.258Z,1250
2019-05-01T07:15:00.960Z,1250
2019-05-01T07:16:03.505Z,1250
2019-05-01T07:17:04.253Z,1250
2019-05-01T07:18:04.948Z,1250
2019-05-01T07:19:07.118Z,1250
2019-05-01T07:20:16.564Z,1250
2019-05-01T07:21:27.292Z,1250
2019-05-01T07:22:42.119Z,1250
2019-05-01T07:23:52.097Z,1250
2019-05-01T07:24:54.005Z,1250
2019-05-01T07:25:54.711Z,1250
2019-05-01T07:26:55.491Z,1250
2019-05-01T07:27:59.728Z,1250
2019-05-01T07:29:00.504Z,1250
2019-05-01T07:30:01.286Z,1250
2019-05-01T07:31:05.585Z,1250
2019-05-01T07:32:07.641Z,1250
2019-05-01T07:33:16.553Z,1250
2019-05-01T07:34:26.092Z,1250
2019-05-01T07:35:28.095Z,1250
2019-05-01T07:36:28.862Z,1250
2019-05-01T07:37:29.665Z,1250
2019-05-01T07:38:38.109Z,1250
2019-05-01T07:39:49.759Z,1250
2019-05-01T07:40:52.398Z,1250
2019-05-01T07:41:53.150Z,1250
2019-05-01T07:42:53.962Z,1250
2019-05-01T07:43:59.512Z,1200
2019-05-01T07:45:08.217Z,1200
2019-05-01T07:46:18.199Z,1250
2019-05-01T07:47:20.164Z,1250
2019-05-01T07:48:20.951Z,1250
2019-05-01T07:49:21.772Z,1250
2019-05-01T07:50:31.265Z,1200
2019-05-01T07:51:33.404Z,1250
2019-05-01T07:52:34.126Z,1250
2019-05-01T07:53:34.924Z,1200
2019-05-01T07:54:42.314Z,1200
2019-05-01T07:55:44.150Z,1200
2019-05-01T07:56:45.190Z,1250
2019-05-01T07:57:45.928Z,1250
2019-05-01T07:58:51.914Z,1200
2019-05-01T08:00:02.780Z,1200
2019-05-01T08:01:13.299Z,1250
2019-05-01T08:02:20.798Z,1250
2019-05-01T08:03:21.532Z,1200
2019-05-01T08:04:36.467Z,1200
2019-05-01T08:05:45.345Z,1250
2019-05-01T08:06:47.511Z,1200
2019-05-01T08:07:48.302Z,1200
2019-05-01T08:08:49.034Z,1200
2019-05-01T08:09:51.450Z,1200
2019-05-01T08:10:52.257Z,1200
2019-05-01T08:11:53.021Z,1200
2019-05-01T08:13:00.235Z,1200
2019-05-01T08:14:11.714Z,1200
2019-05-01T08:15:17.054Z,1200
2019-05-01T08:16:17.792Z,1200
2019-05-01T08:17:20.031Z,1200
2019-05-01T08:18:27.850Z,1200
2019-05-01T08:19:30.029Z,1200
2019-05-01T08:20:30.876Z,1200
2019-05-01T08:21:31.661Z,1200
2019-05-01T08:22:39.006Z,1200
2019-05-01T08:23:47.036Z,1200
2019-05-01T08:24:48.911Z,1200
2019-05-01T08:25:49.780Z,1200
2019-05-01T08:26:50.590Z,1200
2019-05-01T08:27:57.978Z,1200
2019-05-01T08:29:06.783Z,1200
2019-05-01T08:30:17.028Z,1200
2019-05-01T08:31:27.725Z,1200
2019-05-01T08:32:38.770Z,1200
2019-05-01T08:33:49.662Z,1200
2019-05-01T08:35:00.331Z,1200
2019-05-01T08:36:11.506Z,1200
2019-05-01T08:37:22.429Z,1200
2019-05-01T08:38:35.328Z,1200
2019-05-01T08:39:44.115Z,1200
2019-05-01T08:40:50.590Z,1200
2019-05-01T08:41:56.115Z,1200
2019-05-01T08:42:56.862Z,1200
2019-05-01T08:43:57.614Z,1200
2019-05-01T08:45:04.952Z,1200
2019-05-01T08:46:07.590Z,1200
2019-05-01T08:47:12.543Z,1200
2019-05-01T08:48:13.309Z,1200
2019-05-01T08:49:14.102Z,1200
2019-05-01T08:50:14.849Z,1200
2019-05-01T08:51:15.582Z,1200
2019-05-01T08:52:16.314Z,1200
2019-05-01T08:53:22.037Z,1200
2019-05-01T08:54:24.013Z,1200
2019-05-01T08:55:24.798Z,1200
2019-05-01T08:56:25.590Z,1200
2019-05-01T08:57:34.104Z,1200
2019-05-01T08:58:40.068Z,1200
2019-05-01T08:59:40.818Z,1200
2019-05-01T09:00:41.652Z,1200
2019-05-01T09:01:50.491Z,1200
2019-05-01T09:03:13.387Z,1200
2019-05-01T09:04:19.099Z,1200
2019-05-01T09:05:31.343Z,1200
2019-05-01T09:06:39.460Z,1200
2019-05-01T09:07:45.893Z,1200
2019-05-01T09:08:46.770Z,1200
2019-05-01T09:09:47.782Z,1200
2019-05-01T09:10:54.509Z,1200
2019-05-01T09:12:00.954Z,1200
2019-05-01T09:13:01.781Z,1200
2019-05-01T09:14:02.517Z,1200
2019-05-01T09:15:12.503Z,1200
2019-05-01T09:16:15.392Z,1200
2019-05-01T09:17:16.197Z,1200
2019-05-01T09:18:19.132Z,1200
2019-05-01T09:19:19.868Z,1100
2019-05-01T09:20:20.630Z,1200
2019-05-01T09:21:21.387Z,1200
2019-05-01T09:22:22.207Z,1200
2019-05-01T09:23:22.990Z,1200
2019-05-01T09:24:29.393Z,1200
2019-05-01T09:25:35.172Z,1200
2019-05-01T09:26:37.540Z,1200
2019-05-01T09:27:38.334Z,1200
2019-05-01T09:28:40.983Z,1200
2019-05-01T09:29:41.726Z,1200
2019-05-01T09:30:42.462Z,1200
2019-05-01T09:31:43.216Z,1200
2019-05-01T09:32:53.892Z,1200
2019-05-01T09:33:56.160Z,1200
2019-05-01T09:34:58.616Z,1200
2019-05-01T09:35:59.349Z,1200
2019-05-01T09:37:00.077Z,1200
2019-05-01T09:38:00.847Z,1200
2019-05-01T09:39:01.607Z,1200
2019-05-01T09:40:09.061Z,1200
2019-05-01T09:41:11.099Z,1200
2019-05-01T09:42:11.818Z,1200
2019-05-01T09:43:12.622Z,1200
2019-05-01T09:44:13.436Z,1200
2019-05-01T09:45:14.237Z,1200
2019-05-01T09:46:15.013Z,1200
2019-05-01T09:47:15.798Z,1200
2019-05-01T09:48:16.615Z,1200
2019-05-01T09:49:19.519Z,1200
2019-05-01T09:50:20.366Z,1200
2019-05-01T09:51:21.106Z,1200
2019-05-01T09:52:24.803Z,1200
2019-05-01T09:53:34.146Z,1200
2019-05-01T09:54:36.315Z,1200
2019-05-01T09:55:37.082Z,1200
2019-05-01T09:56:38.704Z,1200
2019-05-01T09:57:42.816Z,1200
2019-05-01T09:58:43.675Z,1200
2019-05-01T09:59:44.474Z,1200
2019-05-01T10:00:52.822Z,1200
2019-05-01T10:01:54.636Z,1200
2019-05-01T10:02:55.391Z,1200
2019-05-01T10:03:56.622Z,1200
2019-05-01T10:04:57.414Z,1200
2019-05-01T10:05:58.161Z,1200
2019-05-01T10:06:58.863Z,1200
2019-05-01T10:08:05.545Z,1200
2019-05-01T10:09:06.395Z,1200
2019-05-01T10:10:07.185Z,1200
2019-05-01T10:11:07.953Z,1200
2019-05-01T10:12:13.131Z,1200
2019-05-01T10:13:22.224Z,1200
2019-05-01T10:14:24.876Z,1200
2019-05-01T10:15:25.692Z,1200
2019-05-01T10:16:26.449Z,1150
2019-05-01T10:17:27.170Z,1150
2019-05-01T10:18:27.950Z,1200
2019-05-01T10:19:28.761Z,1200
2019-05-01T10:20:29.602Z,1150
2019-05-01T10:21:30.400Z,1150
2019-05-01T10:22:37.445Z,1150
2019-05-01T10:23:39.360Z,1150
2019-05-01T10:24:40.143Z,1200
2019-05-01T10:25:47.828Z,1200
2019-05-01T10:26:50.511Z,1200
2019-05-01T10:27:53.225Z,1150
2019-05-01T10:28:53.952Z,1150
2019-05-01T10:30:01.353Z,1200
2019-05-01T10:31:11.684Z,1150
2019-05-01T10:32:21.488Z,1150
2019-05-01T10:33:23.773Z,1200
2019-05-01T10:34:24.501Z,1150
2019-05-01T10:35:25.293Z,1200
2019-05-01T10:36:26.134Z,1150
2019-05-01T10:37:33.394Z,1150
2019-05-01T10:38:44.872Z,1150
2019-05-01T10:39:54.206Z,1150
2019-05-01T10:40:56.182Z,1150
2019-05-01T10:41:56.945Z,1150
2019-05-01T10:42:57.720Z,1150
2019-05-01T10:43:58.505Z,1200
2019-05-01T10:44:59.292Z,1200
2019-05-01T10:46:00.086Z,1150
2019-05-01T10:47:02.408Z,1200
2019-05-01T10:48:03.188Z,1150
2019-05-01T10:49:03.926Z,1150
2019-05-01T10:50:04.653Z,1200
2019-05-01T10:51:05.407Z,1200
2019-05-01T10:52:14.659Z,1150
2019-05-01T10:53:15.454Z,1200
2019-05-01T10:54:16.206Z,1150
2019-05-01T10:55:16.926Z,1150
2019-05-01T10:56:17.727Z,1150
2019-05-01T10:57:18.562Z,1150
2019-05-01T10:58:20.479Z,1150
2019-05-01T10:59:21.188Z,1150
2019-05-01T11:00:21.922Z,1150
2019-05-01T11:01:22.729Z,1150
2019-05-01T11:02:23.513Z,1150
2019-05-01T11:03:24.272Z,1150
2019-05-01T11:04:25.011Z,1150
2019-05-01T11:05:25.726Z,1200
2019-05-01T11:06:26.527Z,1150
2019-05-01T11:07:27.307Z,1150
2019-05-01T11:08:28.070Z,1200
2019-05-01T11:09:28.820Z,1200
2019-05-01T11:10:29.578Z,1200
2019-05-01T11:11:30.363Z,1200
2019-05-01T11:12:31.127Z,1200
2019-05-01T11:13:31.926Z,1150
2019-05-01T11:14:32.690Z,1150
2019-05-01T11:15:33.436Z,1150
2019-05-01T11:16:34.224Z,1150
2019-05-01T11:17:35.016Z,1200
2019-05-01T11:18:35.786Z,1200
2019-05-01T11:19:36.512Z,1150
2019-05-01T11:20:37.260Z,1150
2019-05-01T11:21:38.042Z,1150
2019-05-01T11:22:38.829Z,1150
2019-05-01T11:23:39.619Z,1150
2019-05-01T11:24:40.375Z,1200
2019-05-01T11:25:41.108Z,1150
2019-05-01T11:26:41.919Z,1200
2019-05-01T11:27:42.703Z,1200
2019-05-01T11:28:43.501Z,1150
2019-05-01T11:29:44.269Z,1200
2019-05-01T11:30:45.057Z,1150
2019-05-01T11:31:45.854Z,1150
2019-05-01T11:32:46.644Z,1150
2019-05-01T11:33:47.420Z,1150
2019-05-01T11:34:48.156Z,1200
2019-05-01T11:35:48.862Z,1200
2019-05-01T11:36:49.675Z,1150
2019-05-01T11:37:50.485Z,1150
2019-05-01T11:38:51.223Z,1150
2019-05-01T11:39:51.979Z,1150
2019-05-01T11:40:52.771Z,1150
2019-05-01T11:41:53.533Z,1150
2019-05-01T11:42:54.359Z,1200
2019-05-01T11:43:55.112Z,1150
2019-05-01T11:44:55.830Z,1150
2019-05-01T11:45:56.640Z,1150
2019-05-01T11:46:57.364Z,1150
2019-05-01T11:47:58.200Z,1150
2019-05-01T11:48:58.987Z,1150
2019-05-01T11:49:59.751Z,1150
2019-05-01T11:51:00.557Z,1150
2019-05-01T11:52:01.263Z,1150
2019-05-01T11:53:02.045Z,1200
2019-05-01T11:54:02.852Z,1150
2019-05-01T11:55:03.616Z,1150
2019-05-01T11:56:04.481Z,1150
2019-05-01T11:57:05.309Z,1150
2019-05-01T11:58:06.099Z,1150
2019-05-01T11:59:06.909Z,1150
2019-05-01T12:00:07.677Z,1150
2019-05-01T12:01:08.462Z,1150
2019-05-01T12:02:09.167Z,1150
2019-05-01T12:03:09.883Z,1150
2019-05-01T12:04:10.656Z,1150
2019-05-01T12:05:11.454Z,1150
2019-05-01T12:06:23.366Z,1150
2019-05-01T12:07:24.175Z,1150
2019-05-01T12:08:24.920Z,1150
2019-05-01T12:09:25.620Z,1150
2019-05-01T12:10:26.383Z,1150
2019-05-01T12:11:27.196Z,1150
2019-05-01T12:12:27.926Z,1150
2019-05-01T12:13:28.709Z,1150
2019-05-01T12:14:29.500Z,1150
2019-05-01T12:15:30.324Z,1150
2019-05-01T12:16:31.139Z,1150
2019-05-01T12:17:31.891Z,1150
2019-05-01T12:18:32.641Z,1150
2019-05-01T12:19:33.362Z,1150
2019-05-01T12:20:34.209Z,1150
2019-05-01T12:21:35.047Z,1150
2019-05-01T12:22:35.838Z,1150
2019-05-01T12:23:36.609Z,1150
2019-05-01T12:24:37.381Z,1150
2019-05-01T12:25:38.220Z,1150
2019-05-01T12:26:38.990Z,1150
2019-05-01T12:27:39.728Z,1150
2019-05-01T12:28:40.429Z,1150
2019-05-01T12:29:41.179Z,1150
2019-05-01T12:30:42.024Z,1150
2019-05-01T12:31:42.822Z,1100
2019-05-01T12:32:43.598Z,1150
2019-05-01T12:33:44.355Z,1100
2019-05-01T12:34:45.096Z,1100
2019-05-01T12:35:45.932Z,1100
2019-05-01T12:36:46.745Z,1100
2019-05-01T12:37:47.494Z,1100
2019-05-01T12:38:48.264Z,1100
2019-05-01T12:39:49.050Z,1150
2019-05-01T12:40:49.931Z,1100
2019-05-01T12:41:50.747Z,1100
2019-05-01T12:42:51.472Z,1100
2019-05-01T12:43:52.254Z,1100
2019-05-01T12:44:53.025Z,1100
2019-05-01T12:45:53.830Z,1100
2019-05-01T12:46:54.583Z,1100
2019-05-01T12:47:55.349Z,1100
2019-05-01T12:48:56.099Z,1050
2019-05-01T12:49:56.834Z,1050
2019-05-01T12:50:57.646Z,1100
2019-05-01T12:52:10.763Z,1050
2019-05-01T12:53:11.642Z,1050
2019-05-01T12:54:12.387Z,1050
2019-05-01T12:55:13.117Z,1050
2019-05-01T12:56:13.978Z,1050
2019-05-01T12:57:14.800Z,1050
2019-05-01T12:58:15.586Z,1050
2019-05-01T12:59:16.383Z,1050
2019-05-01T13:00:17.141Z,1050
2019-05-01T13:01:17.928Z,1050
2019-05-01T13:02:18.682Z,1050
2019-05-01T13:03:19.383Z,1050
2019-05-01T13:04:20.132Z,1050
2019-05-01T13:05:20.890Z,1050
2019-05-01T13:06:21.696Z,1050
2019-05-01T13:07:22.463Z,1050
2019-05-01T13:08:23.221Z,1050
2019-05-01T13:09:23.999Z,1050
2019-05-01T13:10:24.765Z,1050
2019-05-01T13:11:25.580Z,1050
2019-05-01T13:12:26.363Z,1050
2019-05-01T13:13:27.101Z,1050
2019-05-01T13:14:27.847Z,1050
2019-05-01T13:15:28.618Z,1050
2019-05-01T13:16:29.487Z,1050
2019-05-01T13:17:30.299Z,1050
2019-05-01T13:18:31.028Z,1000
2019-05-01T13:19:31.730Z,1000
2019-05-01T13:20:32.458Z,1000
2019-05-01T13:21:33.316Z,1000
2019-05-01T13:22:34.116Z,1000
2019-05-01T13:23:34.850Z,1000
2019-05-01T13:24:35.607Z,1000
2019-05-01T13:25:36.341Z,1000
2019-05-01T13:26:37.157Z,1000
2019-05-01T13:27:37.956Z,1000
2019-05-01T13:28:38.659Z,950
2019-05-01T13:29:39.383Z,950
2019-05-01T13:30:40.085Z,950
2019-05-01T13:31:40.897Z,950
2019-05-01T13:32:41.721Z,950
2019-05-01T13:33:42.488Z,950
2019-05-01T13:34:43.250Z,950
2019-05-01T13:35:43.995Z,950
2019-05-01T13:36:44.755Z,900
2019-05-01T13:37:45.574Z,900
2019-05-01T13:38:46.307Z,900
2019-05-01T13:39:47.017Z,900
2019-05-01T13:40:47.793Z,900
2019-05-01T13:41:48.585Z,900
2019-05-01T13:42:49.381Z,900
2019-05-01T13:43:50.121Z,850
2019-05-01T13:44:50.872Z,850
2019-05-01T13:45:51.673Z,850
2019-05-01T13:46:52.484Z,850
2019-05-01T13:47:54.924Z,850
2019-05-01T13:48:55.704Z,850
2019-05-01T13:49:56.461Z,800
2019-05-01T13:50:57.214Z,850
2019-05-01T13:51:58.043Z,800
2019-05-01T13:52:58.864Z,800
2019-05-01T13:53:59.601Z,800
2019-05-01T13:55:00.394Z,800
2019-05-01T13:56:01.125Z,800
2019-05-01T13:57:01.917Z,750
2019-05-01T13:58:02.762Z,750
2019-05-01T13:59:03.573Z,750
2019-05-01T14:00:04.321Z,750
2019-05-01T14:01:05.082Z,750
2019-05-01T14:02:05.898Z,750
2019-05-01T14:03:06.630Z,700
2019-05-01T14:04:07.395Z,700
2019-05-01T14:05:08.136Z,700
2019-05-01T14:06:08.875Z,700
2019-05-01T14:07:17.085Z,700
2019-05-01T14:08:17.931Z,700
2019-05-01T14:09:18.770Z,650
2019-05-01T14:10:19.495Z,650
2019-05-01T14:11:20.194Z,650